createdAt,value
2018-10-19T00:04:41.425Z,23.33
2018-10-19T00:09:45.252Z,23.13
2018-10-19T00:14:49.998Z,22.97
2018-10-19T00:19:54.122Z,25.12
2018-10-19T00:24:58.218Z,25.60
2018-10-19T00:30:02.035Z,24.87
2018-10-19T00:35:07.561Z,24.00
2018-10-19T00:40:11.401Z,24.27
2018-10-19T00:45:15.267Z,23.83
2018-10-19T00:50:19.144Z,23.83
2018-10-19T00:55:23.227Z,24.53
2018-10-19T01:00:27.340Z,22.90
2018-10-19T01:05:31.473Z,22.77
2018-10-19T01:10:35.599Z,22.93
2018-10-19T01:15:39.401Z,22.70
2018-10-19T01:20:43.257Z,23.17
2018-10-19T01:25:47.061Z,21.67
2018-10-19T01:30:51.102Z,21.75
2018-10-19T01:35:54.925Z,21.37
2018-10-19T01:40:58.807Z,21.27
2018-10-19T01:46:02.581Z,21.63
2018-10-19T01:51:06.680Z,21.53
2018-10-19T01:56:10.476Z,20.97
2018-10-19T02:01:14.595Z,22.10
2018-10-19T02:06:18.695Z,21.47
2018-10-19T02:11:22.473Z,24.43
2018-10-19T02:16:26.308Z,22.27
2018-10-19T02:21:30.090Z,21.67
2018-10-19T02:26:33.897Z,21.50
2018-10-19T02:31:37.937Z,21.13
2018-10-19T02:36:42.042Z,20.83
2018-10-19T02:41:46.081Z,21.63
2018-10-19T02:46:49.910Z,20.23
2018-10-19T02:51:53.989Z,22.57
2018-10-19T02:56:58.093Z,20.97
2018-10-19T03:02:02.117Z,19.73
2018-10-19T03:07:06.225Z,20.77
2018-10-19T03:12:10.266Z,21.23
2018-10-19T03:17:14.588Z,20.93
2018-10-19T03:22:18.635Z,20.70
2018-10-19T03:27:22.724Z,21.13
2018-10-19T03:32:27.005Z,22.67
2018-10-19T03:37:30.926Z,23.80
2018-10-19T03:42:35.037Z,21.42
2018-10-19T03:47:39.158Z,21.70
2018-10-19T03:52:43.033Z,22.07
2018-10-19T03:57:46.901Z,21.97
2018-10-19T04:02:51.082Z,22.58
2018-10-19T04:07:54.955Z,22.07
2018-10-19T04:12:59.056Z,21.07
2018-10-19T04:18:03.207Z,20.63
2018-10-19T04:23:08.097Z,21.12
2018-10-19T04:28:11.905Z,23.07
2018-10-19T04:33:15.769Z,37.27
2018-10-19T04:38:19.858Z,42.20
2018-10-19T04:43:23.904Z,43.13
2018-10-19T04:48:28.017Z,79.43
2018-10-19T04:53:31.865Z,93.67
2018-10-19T04:58:35.698Z,112.47
2018-10-19T05:03:39.665Z,174.57
2018-10-19T05:08:43.553Z,233.00
2018-10-19T05:13:47.385Z,175.23
2018-10-19T05:18:51.523Z,160.83
2018-10-19T05:23:55.637Z,64.90
2018-10-19T05:28:59.803Z,148.20
2018-10-19T05:34:04.234Z,132.40
2018-10-19T05:39:08.589Z,105.67
2018-10-19T05:44:12.538Z,108.27
2018-10-19T05:49:16.353Z,57.90
2018-10-19T05:54:20.265Z,73.03
2018-10-19T05:59:24.301Z,94.13
2018-10-19T06:04:28.428Z,85.37
2018-10-19T06:09:32.325Z,128.00
2018-10-19T06:14:36.458Z,132.60
2018-10-19T06:19:40.589Z,154.83
2018-10-19T06:24:44.477Z,108.67
2018-10-19T06:29:48.346Z,115.10
2018-10-19T06:34:52.538Z,55.70
2018-10-19T06:39:56.372Z,95.03
2018-10-19T06:45:00.255Z,56.40
2018-10-19T06:50:05.239Z,46.77
2018-10-19T06:55:10.437Z,33.07
2018-10-19T07:00:15.043Z,37.90
2018-10-19T07:05:18.906Z,43.17
2018-10-19T07:10:23.002Z,47.33
2018-10-19T07:15:27.094Z,39.50
2018-10-19T07:20:30.906Z,36.57
2018-10-19T07:25:41.450Z,34.97
2018-10-19T07:30:45.505Z,34.03
2018-10-19T07:35:49.355Z,34.43
2018-10-19T07:40:53.230Z,35.35
2018-10-19T07:45:57.290Z,33.43
2018-10-19T07:51:02.097Z,30.93
2018-10-19T07:56:06.532Z,31.87
2018-10-19T08:01:10.641Z,30.07
2018-10-19T08:06:14.394Z,30.47
2018-10-19T08:11:18.315Z,28.92
2018-10-19T08:16:22.121Z,29.00
2018-10-19T08:21:26.329Z,26.47
2018-10-19T08:26:30.177Z,28.70
2018-10-19T08:31:34.315Z,22.23
2018-10-19T08:36:38.443Z,21.27
2018-10-19T08:41:42.539Z,24.07
2018-10-19T08:46:46.593Z,24.57
2018-10-19T08:51:50.456Z,22.27
2018-10-19T08:56:54.515Z,22.17
2018-10-19T09:01:58.389Z,24.03
2018-10-19T09:07:02.491Z,22.23
2018-10-19T09:12:06.334Z,23.63
2018-10-19T09:17:10.566Z,23.80
2018-10-19T09:22:14.358Z,21.73
2018-10-19T09:27:18.353Z,23.87
2018-10-19T09:32:22.245Z,22.67
2018-10-19T09:37:26.379Z,21.33
2018-10-19T09:42:30.201Z,21.57
2018-10-19T09:47:35.032Z,20.35
2018-10-19T09:52:39.078Z,19.00
2018-10-19T09:57:43.171Z,19.43
2018-10-19T10:02:47.792Z,18.93
2018-10-19T10:07:51.748Z,19.13
2018-10-19T10:12:55.839Z,19.17
2018-10-19T10:17:59.636Z,19.77
2018-10-19T10:23:03.451Z,20.43
2018-10-19T10:28:07.663Z,25.33
2018-10-19T10:33:11.879Z,24.87
2018-10-19T10:38:15.707Z,24.80
2018-10-19T10:43:19.779Z,26.33
2018-10-19T10:48:23.817Z,28.33
2018-10-19T10:53:28.226Z,29.00
2018-10-19T10:58:32.410Z,26.60
2018-10-19T11:03:36.542Z,28.33
2018-10-19T11:08:40.690Z,27.10
2018-10-19T11:13:45.210Z,29.57
2018-10-19T11:18:50.035Z,26.23
2018-10-19T11:23:54.409Z,23.17
2018-10-19T11:28:58.344Z,26.00
2018-10-19T11:34:02.506Z,28.27
2018-10-19T11:39:08.037Z,28.10
2018-10-19T11:44:12.266Z,27.93
2018-10-19T11:49:16.463Z,27.93
2018-10-19T11:54:20.564Z,24.40
2018-10-19T11:59:24.460Z,21.80
2018-10-19T12:04:28.365Z,26.00
2018-10-19T12:09:32.270Z,26.50
2018-10-19T12:14:36.403Z,26.03
2018-10-19T12:19:40.340Z,25.00
2018-10-19T12:24:44.528Z,26.03
2018-10-19T12:29:48.679Z,24.67
2018-10-19T12:34:52.838Z,22.33
2018-10-19T12:39:56.733Z,25.65
2018-10-19T12:45:01.003Z,26.77
2018-10-19T12:50:05.057Z,25.10
2018-10-19T12:55:09.611Z,23.20
2018-10-19T13:00:13.739Z,23.53
2018-10-19T13:05:17.846Z,26.90
2018-10-19T13:10:21.955Z,27.80
2018-10-19T13:15:25.818Z,27.87
2018-10-19T13:20:29.895Z,24.30
2018-10-19T13:25:33.771Z,27.47
2018-10-19T13:30:37.629Z,28.47
2018-10-19T13:35:41.816Z,28.40
2018-10-19T13:40:45.781Z,24.93
2018-10-19T13:45:50.196Z,26.40
2018-10-19T13:50:54.134Z,28.67
2018-10-19T13:55:57.958Z,28.60
2018-10-19T14:01:01.790Z,32.40
2018-10-19T14:06:05.747Z,29.52
2018-10-19T14:11:09.727Z,24.93
2018-10-19T14:16:13.509Z,28.00
2018-10-19T14:21:17.488Z,27.80
2018-10-19T14:26:21.265Z,27.57
2018-10-19T14:31:25.171Z,27.47
2018-10-19T14:36:29.090Z,28.63
2018-10-19T14:41:33.162Z,27.53
2018-10-19T14:46:37.308Z,27.57
2018-10-19T14:51:41.148Z,28.83
2018-10-19T14:56:44.985Z,26.73
2018-10-19T15:01:49.291Z,26.47
2018-10-19T15:06:53.108Z,28.10
2018-10-19T15:11:57.037Z,25.17
2018-10-19T15:17:01.042Z,28.97
2018-10-19T15:22:05.013Z,28.00
2018-10-19T15:27:08.955Z,28.33
2018-10-19T15:32:12.677Z,27.10
2018-10-19T15:37:16.530Z,27.23
2018-10-19T15:42:20.675Z,28.60
2018-10-19T15:47:26.642Z,32.57
2018-10-19T15:52:30.483Z,26.67
2018-10-19T15:57:34.341Z,25.60
2018-10-19T16:02:38.150Z,22.77
2018-10-19T16:07:42.031Z,26.13
2018-10-19T16:12:45.849Z,30.37
2018-10-19T16:17:49.670Z,31.60
2018-10-19T16:22:53.496Z,28.98
2018-10-19T16:27:57.503Z,30.17
2018-10-19T16:33:01.328Z,28.37
2018-10-19T16:38:05.374Z,24.63
2018-10-19T16:43:09.190Z,26.30
2018-10-19T16:48:13.160Z,29.50
2018-10-19T16:53:16.944Z,27.50
2018-10-19T16:58:21.007Z,30.10
2018-10-19T17:03:24.872Z,32.17
2018-10-19T17:08:28.951Z,30.87
2018-10-19T17:13:33.144Z,29.15
2018-10-19T17:18:37.254Z,28.47
2018-10-19T17:23:41.185Z,28.43
2018-10-19T17:28:44.994Z,27.85
2018-10-19T17:33:49.207Z,30.53
2018-10-19T17:38:52.914Z,33.53
2018-10-19T17:43:57.102Z,30.10
2018-10-19T17:49:03.204Z,30.73
2018-10-19T17:54:07.070Z,33.13
2018-10-19T17:59:11.177Z,33.03
2018-10-19T18:04:15.014Z,33.97
2018-10-19T18:09:19.216Z,33.13
2018-10-19T18:14:23.701Z,30.73
2018-10-19T18:19:27.557Z,30.27
2018-10-19T18:24:31.428Z,32.63
2018-10-19T18:29:35.330Z,32.47
2018-10-19T18:34:39.273Z,31.10
2018-10-19T18:39:43.854Z,33.67
2018-10-19T18:44:47.978Z,32.75
2018-10-19T18:49:52.088Z,36.83
2018-10-19T18:54:56.392Z,36.15
2018-10-19T19:00:00.230Z,32.53
2018-10-19T19:05:04.139Z,37.13
2018-10-19T19:10:11.164Z,34.53
2018-10-19T19:15:14.970Z,35.37
2018-10-19T19:20:24.297Z,38.30
2018-10-19T19:25:33.361Z,32.83
2018-10-19T19:30:37.421Z,37.90
2018-10-19T19:35:41.502Z,37.00
2018-10-19T19:40:50.698Z,36.87
2018-10-19T19:45:54.750Z,33.40
2018-10-19T19:50:59.401Z,32.70
2018-10-19T19:56:04.029Z,33.63
2018-10-19T20:01:08.720Z,33.43
2018-10-19T20:06:12.694Z,31.67
2018-10-19T20:11:16.750Z,29.97
2018-10-19T20:16:20.601Z,30.13
2018-10-19T20:21:24.710Z,33.77
2018-10-19T20:26:28.887Z,34.33
2018-10-19T20:31:33.074Z,34.33
2018-10-19T20:36:36.922Z,34.20
2018-10-19T20:41:41.151Z,32.97
2018-10-19T20:47:48.597Z,34.70
2018-10-19T20:52:52.795Z,34.50
2018-10-19T20:57:56.620Z,30.27
2018-10-19T21:03:00.698Z,29.70
2018-10-19T21:08:05.044Z,30.20
2018-10-19T21:13:08.886Z,31.10
2018-10-19T21:18:12.756Z,31.37
2018-10-19T21:23:16.875Z,30.03
2018-10-19T21:28:20.637Z,36.03
2018-10-19T21:33:24.479Z,33.03
2018-10-19T21:38:28.333Z,30.90
2018-10-19T21:43:32.234Z,30.87
2018-10-19T21:48:36.358Z,29.23
2018-10-19T21:53:40.477Z,30.73
2018-10-19T21:58:44.549Z,30.30
2018-10-19T22:03:48.621Z,26.93
2018-10-19T22:08:52.442Z,29.30
2018-10-19T22:13:56.645Z,27.53
2018-10-19T22:19:00.906Z,31.63
2018-10-19T22:24:05.355Z,28.90
2018-10-19T22:29:09.580Z,30.40
2018-10-19T22:34:13.360Z,31.33
2018-10-19T22:39:17.426Z,31.37
2018-10-19T22:44:21.274Z,29.27
2018-10-19T22:49:25.097Z,28.27
2018-10-19T22:54:29.209Z,29.98
2018-10-19T22:59:33.275Z,28.15
2018-10-19T23:04:37.097Z,30.08
2018-10-19T23:09:41.272Z,31.33
2018-10-19T23:14:45.246Z,33.33
2018-10-19T23:19:49.424Z,31.93
2018-10-19T23:24:53.571Z,30.77
2018-10-19T23:29:57.411Z,29.57
2018-10-19T23:35:01.599Z,31.53
2018-10-19T23:40:06.329Z,33.17
2018-10-19T23:45:10.503Z,28.73
2018-10-19T23:50:14.717Z,27.90
2018-10-19T23:55:18.834Z,27.87
